Pagrindinis puslapis
METAR-TAF:

METAR-TAF

Oro uostai :

Ventspilio oro uostas

Ventspilis, Latvija

platuma: 57-21-28N, ilguma: 021-32-39E, Aukštis: 6 m

Dabartinis oras

Ataskaita buvo paskelbta 13 minutes, ne 07:50 UTC
Vėjas 7 kt iš Pietryčių
Temperatūra 24°C
Drėgmė 65%
Slėgis 1022 hPa
Matomumas 10 km arba daugiau
nėra debesų žemiau 1500 m ir nėra kamuolinių lietaus debesų

METAR: EVVA 240750Z AUTO 13007KT CAVOK 24/17 Q1022

Laikas: 11:03 (08:03 UTC)

Prognozė

Ataskaita buvo paskelbta 2 valandos ir 56 minutes, ne 05:07 UTC
Prognozė galioja nuo 24 metu 06 UTC su 24 metu 15 UTC
Vėjas 7 kt iš Rytų/Pietryčių
Matomumas 10 km arba daugiau
nėra debesų žemiau 1500 m ir nėra kamuolinių lietaus debesų
Laikinai
nuo 24 metu 11 UTC su 24 metu 15 UTC
Išsisklaidę debesys ne aukštis 3000 ft, Liūtiniai kamuoliniai debesys.

TAF: EVVA 240507Z 2406/2415 12007KT CAVOK TEMPO 2411/2415 SCT030CB

Orai ataskaitas ir orų prognozės (METAR, TAF).

turimą stotys yra geltonos ir raudonos taškus žemėlapyje.

Perkelti pele per norėdami pamatyti stoties vardą.

Tada spustelėkite, norėdami matyti oro stebėjimo ir prognozės.

Norėdami pakeisti žemėlapį: spustelėkite ant žalios mygtukų su juodo kryžiaus žemyn,; žalią mygtuką su brūkšneliu, jei norite nutolinti; arba žalių rodyklių gretimoms žemėlapius.


METAR-TAF: